sensor_id;sensor_type;location;lat;lon;timestamp;pressure;altitude;pressure_sealevel;temperature;humidity
12759;BME280;20944;47.048;15.390;2023-02-28T00:01:32;98426.16;;;1.37;60.83
12759;BME280;20944;47.048;15.390;2023-02-28T00:04:01;98368.66;;;1.03;60.90
12759;BME280;20944;47.048;15.390;2023-02-28T00:06:29;98426.81;;;1.27;61.43
12759;BME280;20944;47.048;15.390;2023-02-28T00:08:57;98409.78;;;0.96;62.10
12759;BME280;20944;47.048;15.390;2023-02-28T00:11:25;98413.13;;;0.93;62.41
12759;BME280;20944;47.048;15.390;2023-02-28T00:13:56;98421.88;;;0.98;62.49
12759;BME280;20944;47.048;15.390;2023-02-28T00:16:24;98388.97;;;0.88;62.67
12759;BME280;20944;47.048;15.390;2023-02-28T00:18:52;98380.03;;;0.74;62.54
12759;BME280;20944;47.048;15.390;2023-02-28T00:21:20;98426.56;;;1.16;62.68
12759;BME280;20944;47.048;15.390;2023-02-28T00:23:49;98430.16;;;1.23;61.72
12759;BME280;20944;47.048;15.390;2023-02-28T00:26:17;98427.38;;;1.14;61.91
12759;BME280;20944;47.048;15.390;2023-02-28T00:28:47;98428.97;;;1.08;62.71
12759;BME280;20944;47.048;15.390;2023-02-28T00:31:17;98414.09;;;0.97;62.78
12759;BME280;20944;47.048;15.390;2023-02-28T00:33:45;98431.63;;;1.12;63.25
12759;BME280;20944;47.048;15.390;2023-02-28T00:36:14;98433.22;;;1.06;62.81
12759;BME280;20944;47.048;15.390;2023-02-28T00:38:42;98431.66;;;1.13;62.87
12759;BME280;20944;47.048;15.390;2023-02-28T00:41:10;98428.03;;;1.05;63.16
12759;BME280;20944;47.048;15.390;2023-02-28T00:43:39;98434.88;;;1.03;63.32
12759;BME280;20944;47.048;15.390;2023-02-28T00:46:08;98358.09;;;0.55;63.41
12759;BME280;20944;47.048;15.390;2023-02-28T00:48:37;98433.88;;;0.98;63.60
12759;BME280;20944;47.048;15.390;2023-02-28T00:51:05;98426.31;;;1.05;62.95
12759;BME280;20944;47.048;15.390;2023-02-28T00:53:33;98430.44;;;0.97;63.18
12759;BME280;20944;47.048;15.390;2023-02-28T00:56:02;98431.47;;;1.05;63.40
12759;BME280;20944;47.048;15.390;2023-02-28T00:58:30;98428.91;;;1.05;63.77
12759;BME280;20944;47.048;15.390;2023-02-28T01:00:58;98429.03;;;1.12;63.31
12759;BME280;20944;47.048;15.390;2023-02-28T01:03:26;98425.41;;;1.03;63.70
12759;BME280;20944;47.048;15.390;2023-02-28T01:05:56;98404.50;;;0.91;63.39
12759;BME280;20944;47.048;15.390;2023-02-28T01:08:24;98431.19;;;0.93;63.80
12759;BME280;20944;47.048;15.390;2023-02-28T01:10:54;98428.56;;;0.90;63.96
12759;BME280;20944;47.048;15.390;2023-02-28T01:13:22;98422.44;;;0.87;64.30
12759;BME280;20944;47.048;15.390;2023-02-28T01:15:54;98425.59;;;0.75;64.59
12759;BME280;20944;47.048;15.390;2023-02-28T01:18:23;98417.94;;;0.76;65.16
12759;BME280;20944;47.048;15.390;2023-02-28T01:20:52;98423.81;;;0.71;65.31
12759;BME280;20944;47.048;15.390;2023-02-28T01:23:22;98401.34;;;0.67;65.12
12759;BME280;20944;47.048;15.390;2023-02-28T01:25:51;98405.31;;;0.52;65.71
12759;BME280;20944;47.048;15.390;2023-02-28T01:28:19;98421.22;;;0.71;65.90
12759;BME280;20944;47.048;15.390;2023-02-28T01:30:48;98417.81;;;0.72;65.75
12759;BME280;20944;47.048;15.390;2023-02-28T01:33:17;98428.41;;;0.83;65.52
12759;BME280;20944;47.048;15.390;2023-02-28T01:35:45;98387.44;;;0.60;65.86
12759;BME280;20944;47.048;15.390;2023-02-28T01:38:14;98284.66;;;0.00;65.53
12759;BME280;20944;47.048;15.390;2023-02-28T01:40:50;98417.97;;;0.79;65.41
12759;BME280;20944;47.048;15.390;2023-02-28T01:43:23;98415.53;;;0.86;66.02
12759;BME280;20944;47.048;15.390;2023-02-28T01:45:53;98412.78;;;0.76;65.93
12759;BME280;20944;47.048;15.390;2023-02-28T01:48:25;98416.13;;;0.74;66.19
12759;BME280;20944;47.048;15.390;2023-02-28T01:50:55;98415.50;;;0.83;65.79
12759;BME280;20944;47.048;15.390;2023-02-28T01:53:28;98396.06;;;0.62;65.72
12759;BME280;20944;47.048;15.390;2023-02-28T01:56:00;98394.47;;;0.66;65.67
12759;BME280;20944;47.048;15.390;2023-02-28T01:58:30;98401.53;;;0.74;65.97
12759;BME280;20944;47.048;15.390;2023-02-28T02:00:58;98425.03;;;0.87;66.05
12759;BME280;20944;47.048;15.390;2023-02-28T02:03:27;98418.16;;;0.87;66.19
12759;BME280;20944;47.048;15.390;2023-02-28T02:05:55;98426.88;;;0.92;66.32
12759;BME280;20944;47.048;15.390;2023-02-28T02:08:26;98424.56;;;1.04;66.04
12759;BME280;20944;47.048;15.390;2023-02-28T02:10:57;98416.94;;;1.09;66.50
12759;BME280;20944;47.048;15.390;2023-02-28T02:13:37;98425.03;;;1.24;65.92
12759;BME280;20944;47.048;15.390;2023-02-28T02:16:17;98427.53;;;1.20;65.87
12759;BME280;20944;47.048;15.390;2023-02-28T02:18:53;98431.19;;;1.31;66.14
12759;BME280;20944;47.048;15.390;2023-02-28T02:22:09;98365.84;;;0.94;66.01
12759;BME280;20944;47.048;15.390;2023-02-28T02:25:01;98408.50;;;1.16;66.65
12759;BME280;20944;47.048;15.390;2023-02-28T02:27:44;98425.88;;;1.25;66.40
12759;BME280;20944;47.048;15.390;2023-02-28T02:30:41;98405.94;;;1.18;65.99
12759;BME280;20944;47.048;15.390;2023-02-28T02:36:33;98399.03;;;1.17;65.48
12759;BME280;20944;47.048;15.390;2023-02-28T02:39:06;98406.03;;;1.21;65.60
12759;BME280;20944;47.048;15.390;2023-02-28T02:41:41;98418.53;;;1.43;64.76
12759;BME280;20944;47.048;15.390;2023-02-28T02:44:17;98389.72;;;1.23;64.60
12759;BME280;20944;47.048;15.390;2023-02-28T02:46:52;98424.22;;;1.27;65.39
12759;BME280;20944;47.048;15.390;2023-02-28T02:49:27;98374.56;;;0.98;65.99
12759;BME280;20944;47.048;15.390;2023-02-28T02:52:01;98417.19;;;1.20;65.78
12759;BME280;20944;47.048;15.390;2023-02-28T02:54:33;98418.00;;;1.19;68.20
12759;BME280;20944;47.048;15.390;2023-02-28T02:57:08;98422.38;;;1.21;70.62
12759;BME280;20944;47.048;15.390;2023-02-28T02:59:40;98426.88;;;1.30;71.35
12759;BME280;20944;47.048;15.390;2023-02-28T03:02:12;98428.56;;;1.29;71.61
12759;BME280;20944;47.048;15.390;2023-02-28T03:04:45;98408.47;;;1.15;69.81
12759;BME280;20944;47.048;15.390;2023-02-28T03:07:15;98388.41;;;1.01;70.09
12759;BME280;20944;47.048;15.390;2023-02-28T03:09:50;98426.56;;;1.16;70.85
12759;BME280;20944;47.048;15.390;2023-02-28T03:12:20;98418.22;;;1.28;70.02
12759;BME280;20944;47.048;15.390;2023-02-28T03:14:56;98311.81;;;0.61;67.77
12759;BME280;20944;47.048;15.390;2023-02-28T03:17:37;98424.94;;;1.20;68.29
12759;BME280;20944;47.048;15.390;2023-02-28T03:20:17;98402.94;;;0.98;68.66
12759;BME280;20944;47.048;15.390;2023-02-28T03:23:00;98424.16;;;1.24;68.70
12759;BME280;20944;47.048;15.390;2023-02-28T03:25:37;98424.50;;;1.39;67.04
12759;BME280;20944;47.048;15.390;2023-02-28T03:28:11;98386.13;;;1.15;66.60
12759;BME280;20944;47.048;15.390;2023-02-28T03:30:48;98432.75;;;1.24;68.15
12759;BME280;20944;47.048;15.390;2023-02-28T03:33:22;98423.22;;;1.20;68.68
12759;BME280;20944;47.048;15.390;2023-02-28T03:35:54;98426.84;;;1.28;69.32
12759;BME280;20944;47.048;15.390;2023-02-28T03:38:29;98428.59;;;1.31;69.33
12759;BME280;20944;47.048;15.390;2023-02-28T03:41:02;98431.25;;;1.32;69.05
12759;BME280;20944;47.048;15.390;2023-02-28T03:43:35;98432.97;;;1.33;67.86
12759;BME280;20944;47.048;15.390;2023-02-28T03:46:08;98428.56;;;1.28;68.31
12759;BME280;20944;47.048;15.390;2023-02-28T03:48:40;98428.59;;;1.31;67.51
12759;BME280;20944;47.048;15.390;2023-02-28T03:51:15;98429.41;;;1.28;67.90
12759;BME280;20944;47.048;15.390;2023-02-28T03:53:49;98431.19;;;1.31;68.38
12759;BME280;20944;47.048;15.390;2023-02-28T03:56:20;98436.47;;;1.37;69.59
12759;BME280;20944;47.048;15.390;2023-02-28T03:58:55;98423.38;;;1.26;70.11
12759;BME280;20944;47.048;15.390;2023-02-28T04:01:30;98433.25;;;1.47;68.75
12759;BME280;20944;47.048;15.390;2023-02-28T04:03:59;98435.97;;;1.53;67.85
12759;BME280;20944;47.048;15.390;2023-02-28T04:06:31;98440.00;;;1.41;68.52
12759;BME280;20944;47.048;15.390;2023-02-28T04:09:01;98436.44;;;1.34;68.73
12759;BME280;20944;47.048;15.390;2023-02-28T04:11:32;98314.28;;;0.57;70.57
12759;BME280;20944;47.048;15.390;2023-02-28T04:14:01;98444.09;;;1.31;71.39
12759;BME280;20944;47.048;15.390;2023-02-28T04:16:30;98444.00;;;1.26;71.12
12759;BME280;20944;47.048;15.390;2023-02-28T04:19:01;98451.66;;;1.23;71.51
12759;BME280;20944;47.048;15.390;2023-02-28T04:21:32;98410.56;;;0.93;71.28
12759;BME280;20944;47.048;15.390;2023-02-28T04:24:03;98458.50;;;1.20;70.78
12759;BME280;20944;47.048;15.390;2023-02-28T04:26:33;98456.06;;;1.27;71.89
12759;BME280;20944;47.048;15.390;2023-02-28T04:29:03;98458.06;;;1.39;70.25
12759;BME280;20944;47.048;15.390;2023-02-28T04:31:31;98454.28;;;1.25;70.43
12759;BME280;20944;47.048;15.390;2023-02-28T04:34:00;98460.13;;;1.16;71.24
12759;BME280;20944;47.048;15.390;2023-02-28T04:36:28;98461.00;;;1.18;71.90
12759;BME280;20944;47.048;15.390;2023-02-28T04:38:57;98467.31;;;1.31;73.09
12759;BME280;20944;47.048;15.390;2023-02-28T04:41:26;98465.81;;;1.41;72.71
12759;BME280;20944;47.048;15.390;2023-02-28T04:43:58;98446.50;;;1.23;70.41
12759;BME280;20944;47.048;15.390;2023-02-28T04:46:26;98466.25;;;1.21;71.19
12759;BME280;20944;47.048;15.390;2023-02-28T04:48:54;98448.38;;;0.93;71.15
12759;BME280;20944;47.048;15.390;2023-02-28T04:51:22;98463.22;;;1.01;71.25
12759;BME280;20944;47.048;15.390;2023-02-28T04:53:51;98461.66;;;1.08;71.19
12759;BME280;20944;47.048;15.390;2023-02-28T04:56:19;98465.13;;;1.10;71.18
12759;BME280;20944;47.048;15.390;2023-02-28T04:58:49;98448.81;;;1.11;70.02
12759;BME280;20944;47.048;15.390;2023-02-28T05:01:22;98465.28;;;1.16;69.57
12759;BME280;20944;47.048;15.390;2023-02-28T05:03:51;98463.66;;;1.20;69.29
12759;BME280;20944;47.048;15.390;2023-02-28T05:06:21;98461.09;;;1.21;69.42
12759;BME280;20944;47.048;15.390;2023-02-28T05:08:50;98391.22;;;0.74;69.57
12759;BME280;20944;47.048;15.390;2023-02-28T05:11:20;98449.69;;;1.12;69.79
12759;BME280;20944;47.048;15.390;2023-02-28T05:13:51;98468.84;;;1.21;70.78
12759;BME280;20944;47.048;15.390;2023-02-28T05:16:20;98424.75;;;1.12;69.81
12759;BME280;20944;47.048;15.390;2023-02-28T05:18:48;98437.75;;;1.17;69.14
12759;BME280;20944;47.048;15.390;2023-02-28T05:21:28;98455.25;;;1.30;69.46
12759;BME280;20944;47.048;15.390;2023-02-28T05:23:58;98456.16;;;1.32;68.69
12759;BME280;20944;47.048;15.390;2023-02-28T05:26:27;98456.22;;;1.33;68.49
12759;BME280;20944;47.048;15.390;2023-02-28T05:28:57;98461.28;;;1.30;68.71
12759;BME280;20944;47.048;15.390;2023-02-28T05:31:25;98444.63;;;1.16;68.25
12759;BME280;20944;47.048;15.390;2023-02-28T05:33:54;98466.31;;;1.24;68.33
12759;BME280;20944;47.048;15.390;2023-02-28T05:36:22;98471.56;;;1.27;69.28
12759;BME280;20944;47.048;15.390;2023-02-28T05:38:50;98481.06;;;1.30;68.39
12759;BME280;20944;47.048;15.390;2023-02-28T05:41:19;98454.25;;;1.23;68.05
12759;BME280;20944;47.048;15.390;2023-02-28T05:43:48;98476.00;;;1.33;68.18
12759;BME280;20944;47.048;15.390;2023-02-28T05:46:18;98472.59;;;1.35;68.27
12759;BME280;20944;47.048;15.390;2023-02-28T05:48:47;98470.97;;;1.39;67.34
12759;BME280;20944;47.048;15.390;2023-02-28T05:51:16;98483.81;;;1.38;67.24
12759;BME280;20944;47.048;15.390;2023-02-28T05:53:44;98474.16;;;1.29;68.36
12759;BME280;20944;47.048;15.390;2023-02-28T05:56:13;98482.81;;;1.31;68.38
12759;BME280;20944;47.048;15.390;2023-02-28T05:58:42;98440.09;;;1.06;68.10
12759;BME280;20944;47.048;15.390;2023-02-28T06:01:24;98487.38;;;1.43;68.15
12759;BME280;20944;47.048;15.390;2023-02-28T06:03:53;98488.19;;;1.40;68.67
12759;BME280;20944;47.048;15.390;2023-02-28T06:06:21;98492.38;;;1.35;68.32
12759;BME280;20944;47.048;15.390;2023-02-28T06:08:49;98476.56;;;1.20;68.59
12759;BME280;20944;47.048;15.390;2023-02-28T06:11:17;98496.66;;;1.33;68.29
12759;BME280;20944;47.048;15.390;2023-02-28T06:13:47;98075.88;;;-1.16;68.83
12759;BME280;20944;47.048;15.390;2023-02-28T06:16:15;98498.31;;;1.31;69.08
12759;BME280;20944;47.048;15.390;2023-02-28T06:18:45;98500.97;;;1.34;68.76
12759;BME280;20944;47.048;15.390;2023-02-28T06:21:13;98505.28;;;1.35;68.70
12759;BME280;20944;47.048;15.390;2023-02-28T06:23:41;98511.22;;;1.31;68.71
12759;BME280;20944;47.048;15.390;2023-02-28T06:26:10;98509.59;;;1.34;68.62
12759;BME280;20944;47.048;15.390;2023-02-28T06:28:38;98517.31;;;1.33;68.34
12759;BME280;20944;47.048;15.390;2023-02-28T06:31:08;98522.50;;;1.36;68.46
12759;BME280;20944;47.048;15.390;2023-02-28T06:33:37;98483.22;;;1.12;67.92
12759;BME280;20944;47.048;15.390;2023-02-28T06:36:08;98517.31;;;1.34;68.05
12759;BME280;20944;47.048;15.390;2023-02-28T06:38:37;98452.63;;;0.89;68.31
12759;BME280;20944;47.048;15.390;2023-02-28T06:41:05;98522.53;;;1.38;69.00
12759;BME280;20944;47.048;15.390;2023-02-28T06:43:36;98531.25;;;1.41;69.01
12759;BME280;20944;47.048;15.390;2023-02-28T06:46:07;98533.97;;;1.47;68.64
12759;BME280;20944;47.048;15.390;2023-02-28T06:48:36;98516.50;;;1.37;68.26
12759;BME280;20944;47.048;15.390;2023-02-28T06:51:07;98540.88;;;1.48;68.45
12759;BME280;20944;47.048;15.390;2023-02-28T06:53:36;98546.06;;;1.50;68.23
12759;BME280;20944;47.048;15.390;2023-02-28T06:56:06;98437.03;;;0.85;68.39
12759;BME280;20944;47.048;15.390;2023-02-28T06:58:35;98546.94;;;1.50;68.45
12759;BME280;20944;47.048;15.390;2023-02-28T07:01:04;98541.75;;;1.49;68.82
12759;BME280;20944;47.048;15.390;2023-02-28T07:03:34;98548.63;;;1.48;68.27
12759;BME280;20944;47.048;15.390;2023-02-28T07:06:02;98542.63;;;1.51;68.41
12759;BME280;20944;47.048;15.390;2023-02-28T07:08:32;98549.00;;;1.65;68.04
12759;BME280;20944;47.048;15.390;2023-02-28T07:11:00;98529.09;;;1.59;67.64
12759;BME280;20944;47.048;15.390;2023-02-28T07:13:28;98543.00;;;1.66;67.82
12759;BME280;20944;47.048;15.390;2023-02-28T07:15:58;98543.00;;;1.66;67.97
12759;BME280;20944;47.048;15.390;2023-02-28T07:18:27;98547.44;;;1.72;67.36
12759;BME280;20944;47.048;15.390;2023-02-28T07:20:55;98555.81;;;1.63;68.02
12759;BME280;20944;47.048;15.390;2023-02-28T07:23:24;98549.91;;;1.67;67.79
12759;BME280;20944;47.048;15.390;2023-02-28T07:25:53;98510.47;;;1.37;68.14
12759;BME280;20944;47.048;15.390;2023-02-28T07:28:22;98551.47;;;1.60;69.02
12759;BME280;20944;47.048;15.390;2023-02-28T07:30:50;98535.00;;;1.55;68.38
12759;BME280;20944;47.048;15.390;2023-02-28T07:33:18;98557.69;;;1.69;68.62
12759;BME280;20944;47.048;15.390;2023-02-28T07:35:47;98560.34;;;1.72;68.50
12759;BME280;20944;47.048;15.390;2023-02-28T07:38:15;98561.25;;;1.74;68.47
12759;BME280;20944;47.048;15.390;2023-02-28T07:40:43;98557.06;;;1.79;67.87
12759;BME280;20944;47.048;15.390;2023-02-28T07:43:13;98560.59;;;1.82;68.19
12759;BME280;20944;47.048;15.390;2023-02-28T07:45:41;98547.47;;;1.73;67.87
12759;BME280;20944;47.048;15.390;2023-02-28T07:48:10;98564.78;;;1.77;68.24
12759;BME280;20944;47.048;15.390;2023-02-28T07:50:38;98571.75;;;1.81;69.42
12759;BME280;20944;47.048;15.390;2023-02-28T07:53:06;98566.75;;;1.89;68.51
12759;BME280;20944;47.048;15.390;2023-02-28T07:55:34;98572.75;;;1.88;68.46
12759;BME280;20944;47.048;15.390;2023-02-28T07:58:03;98573.59;;;1.87;68.33
12759;BME280;20944;47.048;15.390;2023-02-28T08:00:32;98571.84;;;1.86;67.74
12759;BME280;20944;47.048;15.390;2023-02-28T08:03:01;98573.53;;;1.84;68.34
12759;BME280;20944;47.048;15.390;2023-02-28T08:05:29;98506.50;;;1.51;68.08
12759;BME280;20944;47.048;15.390;2023-02-28T08:07:57;98492.19;;;1.26;68.20
12759;BME280;20944;47.048;15.390;2023-02-28T08:10:25;98580.59;;;1.91;68.64
12759;BME280;20944;47.048;15.390;2023-02-28T08:12:54;98578.97;;;1.96;68.74
12759;BME280;20944;47.048;15.390;2023-02-28T08:15:22;98584.19;;;1.99;67.92
12759;BME280;20944;47.048;15.390;2023-02-28T08:17:51;98599.91;;;2.08;67.55
12759;BME280;20944;47.048;15.390;2023-02-28T08:20:19;98589.44;;;2.02;67.54
12759;BME280;20944;47.048;15.390;2023-02-28T08:22:47;98480.44;;;1.40;67.66
12759;BME280;20944;47.048;15.390;2023-02-28T08:25:16;98587.63;;;1.98;67.89
12759;BME280;20944;47.048;15.390;2023-02-28T08:27:44;98591.69;;;1.87;68.45
12759;BME280;20944;47.048;15.390;2023-02-28T08:30:13;98585.78;;;1.93;68.79
12759;BME280;20944;47.048;15.390;2023-02-28T08:32:42;98586.03;;;2.05;68.96
12759;BME280;20944;47.048;15.390;2023-02-28T08:35:12;98569.63;;;2.03;67.49
12759;BME280;20944;47.048;15.390;2023-02-28T08:37:40;98348.34;;;0.79;67.87
12759;BME280;20944;47.048;15.390;2023-02-28T08:40:09;98557.59;;;2.03;67.98
12759;BME280;20944;47.048;15.390;2023-02-28T08:42:40;98579.53;;;2.24;67.21
12759;BME280;20944;47.048;15.390;2023-02-28T08:45:08;98582.09;;;2.21;67.88
12759;BME280;20944;47.048;15.390;2023-02-28T08:47:36;98577.66;;;2.15;67.29
12759;BME280;20944;47.048;15.390;2023-02-28T08:50:05;98585.41;;;2.15;67.27
12759;BME280;20944;47.048;15.390;2023-02-28T08:52:35;98578.53;;;2.17;66.55
12759;BME280;20944;47.048;15.390;2023-02-28T08:55:05;98564.75;;;2.16;67.31
12759;BME280;20944;47.048;15.390;2023-02-28T08:57:33;98583.34;;;2.41;67.42
12759;BME280;20944;47.048;15.390;2023-02-28T09:00:02;98586.06;;;2.49;66.78
12759;BME280;20944;47.048;15.390;2023-02-28T09:02:31;98586.81;;;2.43;66.10
12759;BME280;20944;47.048;15.390;2023-02-28T09:04:59;98586.69;;;2.35;66.23
12759;BME280;20944;47.048;15.390;2023-02-28T09:07:27;98583.25;;;2.36;66.80
12759;BME280;20944;47.048;15.390;2023-02-28T09:09:57;98580.97;;;2.52;66.46
12759;BME280;20944;47.048;15.390;2023-02-28T09:12:26;98549.50;;;2.30;65.67
12759;BME280;20944;47.048;15.390;2023-02-28T09:14:55;98518.94;;;2.09;65.65
12759;BME280;20944;47.048;15.390;2023-02-28T09:17:23;98568.81;;;2.48;65.85
12759;BME280;20944;47.048;15.390;2023-02-28T09:19:56;98586.34;;;2.64;65.54
12759;BME280;20944;47.048;15.390;2023-02-28T09:22:25;98586.44;;;2.67;66.13
12759;BME280;20944;47.048;15.390;2023-02-28T09:24:53;98595.19;;;2.74;66.11
12759;BME280;20944;47.048;15.390;2023-02-28T09:27:22;98579.63;;;2.70;66.02
12759;BME280;20944;47.048;15.390;2023-02-28T09:29:50;98590.22;;;2.86;65.01
12759;BME280;20944;47.048;15.390;2023-02-28T09:32:18;98592.94;;;2.92;65.73
12759;BME280;20944;47.048;15.390;2023-02-28T09:34:47;98573.69;;;2.78;65.57
12759;BME280;20944;47.048;15.390;2023-02-28T09:37:15;98592.00;;;2.88;65.13
12759;BME280;20944;47.048;15.390;2023-02-28T09:39:43;98598.13;;;2.93;65.04
12759;BME280;20944;47.048;15.390;2023-02-28T09:42:19;98592.97;;;2.93;64.89
12759;BME280;20944;47.048;15.390;2023-02-28T09:44:50;98599.19;;;3.03;65.67
12759;BME280;20944;47.048;15.390;2023-02-28T09:47:25;98589.81;;;3.11;64.94
12759;BME280;20944;47.048;15.390;2023-02-28T09:49:57;98588.22;;;3.18;64.16
12759;BME280;20944;47.048;15.390;2023-02-28T09:52:29;98569.88;;;3.06;64.36
12759;BME280;20944;47.048;15.390;2023-02-28T09:55:01;98561.13;;;2.99;64.62
12759;BME280;20944;47.048;15.390;2023-02-28T09:57:36;98586.41;;;3.14;64.19
12759;BME280;20944;47.048;15.390;2023-02-28T10:00:13;98538.91;;;2.63;65.21
12759;BME280;20944;47.048;15.390;2023-02-28T10:03:02;98568.28;;;3.14;63.52
12759;BME280;20944;47.048;15.390;2023-02-28T10:05:36;98542.03;;;2.91;63.05
12759;BME280;20944;47.048;15.390;2023-02-28T10:08:13;98552.75;;;3.14;62.78
12759;BME280;20944;47.048;15.390;2023-02-28T10:10:46;98588.63;;;3.42;61.82
12759;BME280;20944;47.048;15.390;2023-02-28T10:13:21;98587.97;;;3.56;62.74
12759;BME280;20944;47.048;15.390;2023-02-28T10:15:56;98475.72;;;2.99;61.72
12759;BME280;20944;47.048;15.390;2023-02-28T10:18:30;98582.88;;;3.62;61.80
12759;BME280;20944;47.048;15.390;2023-02-28T10:21:04;98584.59;;;3.63;63.71
12759;BME280;20944;47.048;15.390;2023-02-28T10:23:34;98461.91;;;3.00;62.79
12759;BME280;20944;47.048;15.390;2023-02-28T10:26:10;98579.28;;;3.52;62.18
12759;BME280;20944;47.048;15.390;2023-02-28T10:28:39;98564.56;;;3.51;63.53
12759;BME280;20944;47.048;15.390;2023-02-28T10:31:13;98559.56;;;3.62;62.61
12759;BME280;20944;47.048;15.390;2023-02-28T10:33:43;98581.50;;;3.85;62.47
12759;BME280;20944;47.048;15.390;2023-02-28T10:36:13;98580.72;;;3.91;62.68
12759;BME280;20944;47.048;15.390;2023-02-28T10:38:44;98577.38;;;3.99;62.10
12759;BME280;20944;47.048;15.390;2023-02-28T10:41:14;98567.19;;;4.15;61.68
12759;BME280;20944;47.048;15.390;2023-02-28T10:43:44;98554.09;;;4.02;61.28
12759;BME280;20944;47.048;15.390;2023-02-28T10:46:16;98565.34;;;4.06;63.23
12759;BME280;20944;47.048;15.390;2023-02-28T10:49:02;98573.09;;;4.03;61.20
12759;BME280;20944;47.048;15.390;2023-02-28T10:51:36;98560.00;;;3.94;61.74
12759;BME280;20944;47.048;15.390;2023-02-28T10:54:05;98558.00;;;3.74;60.89
12759;BME280;20944;47.048;15.390;2023-02-28T10:56:41;98557.22;;;3.78;61.18
12759;BME280;20944;47.048;15.390;2023-02-28T10:59:27;98562.56;;;3.91;61.60
12759;BME280;20944;47.048;15.390;2023-02-28T11:01:57;98559.19;;;3.96;61.59
12759;BME280;20944;47.048;15.390;2023-02-28T11:04:34;98556.53;;;3.93;61.52
12759;BME280;20944;47.048;15.390;2023-02-28T11:07:14;98559.88;;;3.85;60.96
12759;BME280;20944;47.048;15.390;2023-02-28T11:09:48;98550.63;;;4.03;61.03
12759;BME280;20944;47.048;15.390;2023-02-28T11:12:21;98531.66;;;4.07;62.47
12759;BME280;20944;47.048;15.390;2023-02-28T11:14:52;98526.53;;;4.14;60.79
12759;BME280;20944;47.048;15.390;2023-02-28T11:17:25;98540.53;;;4.26;63.51
12759;BME280;20944;47.048;15.390;2023-02-28T11:19:57;98536.31;;;4.35;62.84
12759;BME280;20944;47.048;15.390;2023-02-28T11:22:27;98540.84;;;4.54;61.81
12759;BME280;20944;47.048;15.390;2023-02-28T11:24:59;98532.28;;;4.59;62.77
12759;BME280;20944;47.048;15.390;2023-02-28T11:27:44;98518.53;;;4.71;61.74
12759;BME280;20944;47.048;15.390;2023-02-28T11:30:30;98525.41;;;4.66;62.94
12759;BME280;20944;47.048;15.390;2023-02-28T11:33:00;98499.41;;;4.62;61.19
12759;BME280;20944;47.048;15.390;2023-02-28T11:35:31;98492.56;;;4.68;60.40
12759;BME280;20944;47.048;15.390;2023-02-28T11:38:01;98497.81;;;4.76;60.34
12759;BME280;20944;47.048;15.390;2023-02-28T11:40:38;98455.84;;;4.31;61.84
12759;BME280;20944;47.048;15.390;2023-02-28T11:43:21;98514.13;;;4.64;60.11
12759;BME280;20944;47.048;15.390;2023-02-28T11:46:04;98514.00;;;4.52;60.95
12759;BME280;20944;47.048;15.390;2023-02-28T11:48:42;98518.31;;;4.50;61.86
12759;BME280;20944;47.048;15.390;2023-02-28T11:51:21;98497.50;;;4.44;60.72
12759;BME280;20944;47.048;15.390;2023-02-28T11:54:07;98512.19;;;4.45;61.26
12759;BME280;20944;47.048;15.390;2023-02-28T11:56:43;98508.59;;;4.32;61.18
12759;BME280;20944;47.048;15.390;2023-02-28T11:59:28;98506.94;;;4.37;62.30
12759;BME280;20944;47.048;15.390;2023-02-28T12:02:23;98501.88;;;4.48;62.85
12759;BME280;20944;47.048;15.390;2023-02-28T12:05:08;98508.91;;;4.61;63.37
12759;BME280;20944;47.048;15.390;2023-02-28T12:07:45;98467.44;;;4.67;62.05
12759;BME280;20944;47.048;15.390;2023-02-28T12:10:21;98418.09;;;4.61;61.16
12759;BME280;20944;47.048;15.390;2023-02-28T12:12:59;98469.56;;;5.11;60.74
12759;BME280;20944;47.048;15.390;2023-02-28T12:15:52;98485.91;;;5.01;59.06
12759;BME280;20944;47.048;15.390;2023-02-28T12:18:42;98482.22;;;4.76;58.87
12759;BME280;20944;47.048;15.390;2023-02-28T12:21:27;98472.72;;;4.76;59.80
12759;BME280;20944;47.048;15.390;2023-02-28T12:24:07;98484.97;;;4.91;60.39
12759;BME280;20944;47.048;15.390;2023-02-28T12:26:41;98350.13;;;4.07;62.16
12759;BME280;20944;47.048;15.390;2023-02-28T12:29:15;98474.59;;;4.93;60.42
12759;BME280;20944;47.048;15.390;2023-02-28T12:31:49;98479.78;;;4.94;60.61
12759;BME280;20944;47.048;15.390;2023-02-28T12:34:22;98473.84;;;5.09;60.53
12759;BME280;20944;47.048;15.390;2023-02-28T12:36:56;98472.25;;;5.23;60.57
12759;BME280;20944;47.048;15.390;2023-02-28T12:39:29;98467.13;;;5.37;59.59
12759;BME280;20944;47.048;15.390;2023-02-28T12:42:19;98466.25;;;5.36;59.39
12759;BME280;20944;47.048;15.390;2023-02-28T12:44:53;98471.41;;;5.29;60.79
12759;BME280;20944;47.048;15.390;2023-02-28T12:47:24;98467.03;;;5.23;60.23
12759;BME280;20944;47.048;15.390;2023-02-28T12:49:56;98462.78;;;5.34;59.58
12759;BME280;20944;47.048;15.390;2023-02-28T12:52:39;98460.16;;;5.30;60.73
12759;BME280;20944;47.048;15.390;2023-02-28T12:55:14;98436.69;;;5.19;60.79
12759;BME280;20944;47.048;15.390;2023-02-28T12:57:48;98460.19;;;5.36;59.55
12759;BME280;20944;47.048;15.390;2023-02-28T13:00:20;98436.47;;;4.90;61.66
12759;BME280;20944;47.048;15.390;2023-02-28T13:03:11;98432.03;;;4.75;62.35
12759;BME280;20944;47.048;15.390;2023-02-28T13:06:02;98450.19;;;4.72;61.58
12759;BME280;20944;47.048;15.390;2023-02-28T13:08:53;98453.22;;;5.29;60.04
12759;BME280;20944;47.048;15.390;2023-02-28T13:11:29;98350.69;;;4.73;60.46
12759;BME280;20944;47.048;15.390;2023-02-28T13:14:01;98422.84;;;5.17;59.73
12759;BME280;20944;47.048;15.390;2023-02-28T13:16:53;98446.28;;;5.29;59.95
12759;BME280;20944;47.048;15.390;2023-02-28T13:19:23;98442.56;;;4.92;61.27
12759;BME280;20944;47.048;15.390;2023-02-28T13:21:53;98445.94;;;4.79;61.92
12759;BME280;20944;47.048;15.390;2023-02-28T13:24:45;98349.31;;;4.12;61.18
12759;BME280;20944;47.048;15.390;2023-02-28T13:27:31;98438.16;;;4.83;62.09
12759;BME280;20944;47.048;15.390;2023-02-28T13:30:00;98438.19;;;4.86;60.95